Decoded Metar for KEVM (EVELETH MUNI in MN, USA) (IATA:EVM) | Meteo·Mobile Aviation Weather
aviador You're here:

KEVM Decoded Metar

EVELETH MUNI in MN, USA
Report Time2018-11-19 09:55:00
UTC Time2018-11-19 10:11:41
Flight Rules ifr IFR
Wind040° at 07 kt
W.Decomp.*RWY 09: 4.5 kt HW 5.4 kt LCW
RWY 32: 1.2 kt HW 6.9 kt RCW
W.Rank040° ranks 22
Current wind is above 040° avg. (5.2)
Visibility4828 m
Phenomena:Light Snow
Clouds:Overcast 007 Hf
Expected CloudBase > 800 ft AGL from Temp-Dew spread
Ceiling700 ft
Temp-9°C (ISA -21)
Dew Point-11°C (86% RH)
AAT-14.6°C
QNH1018 hPa
Density Alt-1,391 ft
Elevation1,381 ft
Report Wrong Elevation
Raw Report
KEVM 190955Z AUTO 04007KT 3SM -SN OVC007 M09/M11 A3005 RMK AO2
T10901110=

Extra information for KEVM:More info

Metar Taf Metar & Taf Last 4 Metars F.Rules Stats Wind Profile Meteogram Temp Stats Airport Information Weather charts Add Link Nearby VenuesMetar ALERT Operation Metar Decoded Social comments

AIRNAV info for KEVM